sensor_id;sensor_type;location;lat;lon;timestamp;temperature;humidity
39919;DHT22;25589;51.552;13.424;2023-04-15T00:01:18;8.80;99.90
39919;DHT22;25589;51.552;13.424;2023-04-15T00:03:44;8.70;99.90
39919;DHT22;25589;51.552;13.424;2023-04-15T00:06:10;8.20;99.90
39919;DHT22;25589;51.552;13.424;2023-04-15T00:08:36;8.60;99.90
39919;DHT22;25589;51.552;13.424;2023-04-15T00:11:02;8.70;99.90
39919;DHT22;25589;51.552;13.424;2023-04-15T00:13:30;8.70;99.90
39919;DHT22;25589;51.552;13.424;2023-04-15T00:15:57;8.70;99.90
39919;DHT22;25589;51.552;13.424;2023-04-15T00:18:23;9.00;99.90
39919;DHT22;25589;51.552;13.424;2023-04-15T00:20:49;9.60;99.90
39919;DHT22;25589;51.552;13.424;2023-04-15T00:23:14;9.20;99.90
39919;DHT22;25589;51.552;13.424;2023-04-15T00:25:40;8.40;99.90
39919;DHT22;25589;51.552;13.424;2023-04-15T00:28:06;8.80;99.90
39919;DHT22;25589;51.552;13.424;2023-04-15T00:30:32;9.70;99.90
39919;DHT22;25589;51.552;13.424;2023-04-15T00:32:59;8.80;99.90
39919;DHT22;25589;51.552;13.424;2023-04-15T00:35:26;9.30;99.90
39919;DHT22;25589;51.552;13.424;2023-04-15T00:40:20;8.80;99.90
39919;DHT22;25589;51.552;13.424;2023-04-15T00:42:46;8.70;99.90
39919;DHT22;25589;51.552;13.424;2023-04-15T00:45:12;8.70;99.90
39919;DHT22;25589;51.552;13.424;2023-04-15T00:47:40;8.70;99.90
39919;DHT22;25589;51.552;13.424;2023-04-15T00:50:07;8.70;99.90
39919;DHT22;25589;51.552;13.424;2023-04-15T00:52:33;8.80;99.90
39919;DHT22;25589;51.552;13.424;2023-04-15T00:54:59;9.80;99.90
39919;DHT22;25589;51.552;13.424;2023-04-15T00:57:25;9.00;99.90
39919;DHT22;25589;51.552;13.424;2023-04-15T00:59:54;8.90;99.90
39919;DHT22;25589;51.552;13.424;2023-04-15T01:02:21;8.70;99.90
39919;DHT22;25589;51.552;13.424;2023-04-15T01:04:48;8.90;99.90
39919;DHT22;25589;51.552;13.424;2023-04-15T01:07:14;8.80;99.90
39919;DHT22;25589;51.552;13.424;2023-04-15T01:09:40;9.10;99.90
39919;DHT22;25589;51.552;13.424;2023-04-15T01:12:06;9.00;99.90
39919;DHT22;25589;51.552;13.424;2023-04-15T01:14:33;8.90;99.90
39919;DHT22;25589;51.552;13.424;2023-04-15T01:16:58;8.90;99.90
39919;DHT22;25589;51.552;13.424;2023-04-15T01:19:24;7.90;99.90
39919;DHT22;25589;51.552;13.424;2023-04-15T01:21:50;8.90;99.90
39919;DHT22;25589;51.552;13.424;2023-04-15T01:24:17;8.90;99.90
39919;DHT22;25589;51.552;13.424;2023-04-15T01:26:44;9.30;99.90
39919;DHT22;25589;51.552;13.424;2023-04-15T01:29:09;9.10;99.90
39919;DHT22;25589;51.552;13.424;2023-04-15T01:31:35;8.90;99.90
39919;DHT22;25589;51.552;13.424;2023-04-15T01:34:00;9.80;99.90
39919;DHT22;25589;51.552;13.424;2023-04-15T01:36:26;8.80;99.90
39919;DHT22;25589;51.552;13.424;2023-04-15T01:38:52;9.00;99.90
39919;DHT22;25589;51.552;13.424;2023-04-15T01:41:27;8.90;99.90
39919;DHT22;25589;51.552;13.424;2023-04-15T01:43:53;9.30;99.90
39919;DHT22;25589;51.552;13.424;2023-04-15T01:46:19;8.90;99.90
39919;DHT22;25589;51.552;13.424;2023-04-15T01:48:45;8.90;99.90
39919;DHT22;25589;51.552;13.424;2023-04-15T01:51:10;8.80;99.90
39919;DHT22;25589;51.552;13.424;2023-04-15T01:53:36;8.90;99.90
39919;DHT22;25589;51.552;13.424;2023-04-15T01:56:02;9.40;99.90
39919;DHT22;25589;51.552;13.424;2023-04-15T01:58:28;8.90;99.90
39919;DHT22;25589;51.552;13.424;2023-04-15T02:00:53;9.10;99.90
39919;DHT22;25589;51.552;13.424;2023-04-15T02:03:19;9.00;99.90
39919;DHT22;25589;51.552;13.424;2023-04-15T02:05:44;9.10;99.90
39919;DHT22;25589;51.552;13.424;2023-04-15T02:08:10;9.00;99.90
39919;DHT22;25589;51.552;13.424;2023-04-15T02:10:37;9.20;99.90
39919;DHT22;25589;51.552;13.424;2023-04-15T02:13:04;8.70;99.90
39919;DHT22;25589;51.552;13.424;2023-04-15T02:15:29;9.20;99.90
39919;DHT22;25589;51.552;13.424;2023-04-15T02:17:55;9.50;99.90
39919;DHT22;25589;51.552;13.424;2023-04-15T02:20:21;9.20;99.90
39919;DHT22;25589;51.552;13.424;2023-04-15T02:22:47;9.20;99.90
39919;DHT22;25589;51.552;13.424;2023-04-15T02:25:14;9.20;99.90
39919;DHT22;25589;51.552;13.424;2023-04-15T02:30:08;9.20;99.90
39919;DHT22;25589;51.552;13.424;2023-04-15T02:32:34;9.20;99.90
39919;DHT22;25589;51.552;13.424;2023-04-15T02:37:35;9.80;99.90
39919;DHT22;25589;51.552;13.424;2023-04-15T02:40:10;9.30;99.90
39919;DHT22;25589;51.552;13.424;2023-04-15T02:42:40;9.30;99.90
39919;DHT22;25589;51.552;13.424;2023-04-15T02:45:09;9.90;99.90
39919;DHT22;25589;51.552;13.424;2023-04-15T02:47:36;8.70;99.90
39919;DHT22;25589;51.552;13.424;2023-04-15T02:50:06;9.30;99.90
39919;DHT22;25589;51.552;13.424;2023-04-15T02:52:32;9.40;99.90
39919;DHT22;25589;51.552;13.424;2023-04-15T02:54:57;9.40;99.90
39919;DHT22;25589;51.552;13.424;2023-04-15T02:57:27;9.90;99.90
39919;DHT22;25589;51.552;13.424;2023-04-15T02:59:55;9.40;99.90
39919;DHT22;25589;51.552;13.424;2023-04-15T03:02:21;9.30;99.90
39919;DHT22;25589;51.552;13.424;2023-04-15T03:04:46;9.60;99.90
39919;DHT22;25589;51.552;13.424;2023-04-15T03:07:12;9.70;99.90
39919;DHT22;25589;51.552;13.424;2023-04-15T03:09:38;9.70;99.90
39919;DHT22;25589;51.552;13.424;2023-04-15T03:12:06;9.80;99.90
39919;DHT22;25589;51.552;13.424;2023-04-15T03:14:32;9.50;99.90
39919;DHT22;25589;51.552;13.424;2023-04-15T03:16:57;9.60;99.90
39919;DHT22;25589;51.552;13.424;2023-04-15T03:19:24;9.50;99.90
39919;DHT22;25589;51.552;13.424;2023-04-15T03:21:50;9.50;99.90
39919;DHT22;25589;51.552;13.424;2023-04-15T03:24:16;9.50;99.90
39919;DHT22;25589;51.552;13.424;2023-04-15T03:26:43;9.40;99.90
39919;DHT22;25589;51.552;13.424;2023-04-15T03:29:12;9.40;99.90
39919;DHT22;25589;51.552;13.424;2023-04-15T03:31:39;9.40;99.90
39919;DHT22;25589;51.552;13.424;2023-04-15T03:34:04;10.10;99.90
39919;DHT22;25589;51.552;13.424;2023-04-15T03:36:31;9.50;99.90
39919;DHT22;25589;51.552;13.424;2023-04-15T03:38:58;9.50;99.90
39919;DHT22;25589;51.552;13.424;2023-04-15T03:41:23;9.50;99.90
39919;DHT22;25589;51.552;13.424;2023-04-15T03:43:49;9.50;99.90
39919;DHT22;25589;51.552;13.424;2023-04-15T03:46:17;9.70;99.90
39919;DHT22;25589;51.552;13.424;2023-04-15T03:48:42;9.50;99.90
39919;DHT22;25589;51.552;13.424;2023-04-15T03:51:08;9.60;99.90
39919;DHT22;25589;51.552;13.424;2023-04-15T03:53:33;8.90;99.90
39919;DHT22;25589;51.552;13.424;2023-04-15T03:55:59;9.50;99.90
39919;DHT22;25589;51.552;13.424;2023-04-15T03:58:24;9.60;99.90
39919;DHT22;25589;51.552;13.424;2023-04-15T04:00:50;9.40;99.90
39919;DHT22;25589;51.552;13.424;2023-04-15T04:03:15;9.60;99.90
39919;DHT22;25589;51.552;13.424;2023-04-15T04:05:41;8.70;99.90
39919;DHT22;25589;51.552;13.424;2023-04-15T04:08:08;10.30;99.90
39919;DHT22;25589;51.552;13.424;2023-04-15T04:10:34;9.70;99.90
39919;DHT22;25589;51.552;13.424;2023-04-15T04:13:00;9.20;99.90
39919;DHT22;25589;51.552;13.424;2023-04-15T04:15:26;9.60;99.90
39919;DHT22;25589;51.552;13.424;2023-04-15T04:17:52;9.70;99.90
39919;DHT22;25589;51.552;13.424;2023-04-15T04:20:17;9.70;99.90
39919;DHT22;25589;51.552;13.424;2023-04-15T04:22:43;9.80;99.90
39919;DHT22;25589;51.552;13.424;2023-04-15T04:27:35;9.70;99.90
39919;DHT22;25589;51.552;13.424;2023-04-15T04:30:01;9.80;99.90
39919;DHT22;25589;51.552;13.424;2023-04-15T04:32:26;9.90;99.90
39919;DHT22;25589;51.552;13.424;2023-04-15T04:34:52;9.70;99.90
39919;DHT22;25589;51.552;13.424;2023-04-15T04:37:17;9.80;99.90
39919;DHT22;25589;51.552;13.424;2023-04-15T04:39:44;9.90;99.90
39919;DHT22;25589;51.552;13.424;2023-04-15T04:42:10;10.00;99.90
39919;DHT22;25589;51.552;13.424;2023-04-15T04:44:36;10.20;99.90
39919;DHT22;25589;51.552;13.424;2023-04-15T04:47:01;10.50;99.90
39919;DHT22;25589;51.552;13.424;2023-04-15T04:49:27;10.10;99.90
39919;DHT22;25589;51.552;13.424;2023-04-15T04:51:53;10.40;99.90
39919;DHT22;25589;51.552;13.424;2023-04-15T04:54:18;10.20;99.90
39919;DHT22;25589;51.552;13.424;2023-04-15T04:56:44;9.50;99.90
39919;DHT22;25589;51.552;13.424;2023-04-15T04:59:09;10.80;99.90
39919;DHT22;25589;51.552;13.424;2023-04-15T05:01:35;10.70;99.90
39919;DHT22;25589;51.552;13.424;2023-04-15T05:04:00;9.90;99.90
39919;DHT22;25589;51.552;13.424;2023-04-15T05:06:26;10.80;99.90
39919;DHT22;25589;51.552;13.424;2023-04-15T05:08:54;10.10;99.90
39919;DHT22;25589;51.552;13.424;2023-04-15T05:11:21;10.10;99.90
39919;DHT22;25589;51.552;13.424;2023-04-15T05:13:46;10.10;99.90
39919;DHT22;25589;51.552;13.424;2023-04-15T05:16:12;9.60;99.90
39919;DHT22;25589;51.552;13.424;2023-04-15T05:18:37;10.50;99.90
39919;DHT22;25589;51.552;13.424;2023-04-15T05:21:03;10.40;99.90
39919;DHT22;25589;51.552;13.424;2023-04-15T05:23:29;9.50;99.90
39919;DHT22;25589;51.552;13.424;2023-04-15T05:25:54;11.00;99.90
39919;DHT22;25589;51.552;13.424;2023-04-15T05:28:20;10.40;99.90
39919;DHT22;25589;51.552;13.424;2023-04-15T05:30:46;10.60;99.90
39919;DHT22;25589;51.552;13.424;2023-04-15T05:33:11;10.40;99.90
39919;DHT22;25589;51.552;13.424;2023-04-15T05:38:03;11.20;99.90
39919;DHT22;25589;51.552;13.424;2023-04-15T05:42:56;11.30;99.90
39919;DHT22;25589;51.552;13.424;2023-04-15T05:45:21;10.50;99.90
39919;DHT22;25589;51.552;13.424;2023-04-15T05:47:47;10.70;99.90
39919;DHT22;25589;51.552;13.424;2023-04-15T05:50:15;10.70;99.90
39919;DHT22;25589;51.552;13.424;2023-04-15T05:52:41;12.30;99.90
39919;DHT22;25589;51.552;13.424;2023-04-15T05:55:06;10.80;99.90
39919;DHT22;25589;51.552;13.424;2023-04-15T05:57:32;10.50;99.90
39919;DHT22;25589;51.552;13.424;2023-04-15T05:59:58;10.70;99.90
39919;DHT22;25589;51.552;13.424;2023-04-15T06:02:23;10.80;99.90
39919;DHT22;25589;51.552;13.424;2023-04-15T06:04:49;10.90;99.90
39919;DHT22;25589;51.552;13.424;2023-04-15T06:07:14;10.70;99.90
39919;DHT22;25589;51.552;13.424;2023-04-15T06:09:40;10.90;99.90
39919;DHT22;25589;51.552;13.424;2023-04-15T06:12:05;11.00;99.90
39919;DHT22;25589;51.552;13.424;2023-04-15T06:14:36;11.00;99.90
39919;DHT22;25589;51.552;13.424;2023-04-15T06:17:02;11.00;99.90
39919;DHT22;25589;51.552;13.424;2023-04-15T06:19:28;10.90;99.90
39919;DHT22;25589;51.552;13.424;2023-04-15T06:21:53;10.80;99.90
39919;DHT22;25589;51.552;13.424;2023-04-15T06:24:19;11.90;99.90
39919;DHT22;25589;51.552;13.424;2023-04-15T06:26:45;11.10;99.90
39919;DHT22;25589;51.552;13.424;2023-04-15T06:29:10;11.10;99.90
39919;DHT22;25589;51.552;13.424;2023-04-15T06:31:36;11.10;99.90
39919;DHT22;25589;51.552;13.424;2023-04-15T06:34:01;11.10;99.90
39919;DHT22;25589;51.552;13.424;2023-04-15T06:36:27;11.00;99.90
39919;DHT22;25589;51.552;13.424;2023-04-15T06:38:53;11.00;99.90
39919;DHT22;25589;51.552;13.424;2023-04-15T06:41:18;11.10;99.90
39919;DHT22;25589;51.552;13.424;2023-04-15T06:43:44;11.10;99.90
39919;DHT22;25589;51.552;13.424;2023-04-15T06:46:09;10.80;99.90
39919;DHT22;25589;51.552;13.424;2023-04-15T06:48:35;10.70;99.90
39919;DHT22;25589;51.552;13.424;2023-04-15T06:51:01;11.40;99.90
39919;DHT22;25589;51.552;13.424;2023-04-15T06:53:28;11.30;99.90
39919;DHT22;25589;51.552;13.424;2023-04-15T06:55:54;11.80;99.90
39919;DHT22;25589;51.552;13.424;2023-04-15T06:58:20;11.20;99.90
39919;DHT22;25589;51.552;13.424;2023-04-15T07:00:46;11.70;99.90
39919;DHT22;25589;51.552;13.424;2023-04-15T07:03:12;11.30;99.90
39919;DHT22;25589;51.552;13.424;2023-04-15T07:05:38;11.20;99.90
39919;DHT22;25589;51.552;13.424;2023-04-15T07:08:04;11.30;99.90
39919;DHT22;25589;51.552;13.424;2023-04-15T07:10:30;11.30;99.90
39919;DHT22;25589;51.552;13.424;2023-04-15T07:12:56;11.30;99.90
39919;DHT22;25589;51.552;13.424;2023-04-15T07:15:21;11.40;99.90
39919;DHT22;25589;51.552;13.424;2023-04-15T07:17:48;11.80;99.90
39919;DHT22;25589;51.552;13.424;2023-04-15T07:20:13;11.30;99.90
39919;DHT22;25589;51.552;13.424;2023-04-15T07:22:39;10.60;99.90
39919;DHT22;25589;51.552;13.424;2023-04-15T07:25:05;11.60;99.90
39919;DHT22;25589;51.552;13.424;2023-04-15T07:27:31;11.50;99.90
39919;DHT22;25589;51.552;13.424;2023-04-15T07:29:57;11.40;99.90
39919;DHT22;25589;51.552;13.424;2023-04-15T07:32:22;11.40;99.90
39919;DHT22;25589;51.552;13.424;2023-04-15T07:34:48;11.70;99.90
39919;DHT22;25589;51.552;13.424;2023-04-15T07:37:14;11.50;99.90
39919;DHT22;25589;51.552;13.424;2023-04-15T07:39:39;11.50;99.90
39919;DHT22;25589;51.552;13.424;2023-04-15T07:42:05;11.40;99.90
39919;DHT22;25589;51.552;13.424;2023-04-15T07:44:31;11.40;99.90
39919;DHT22;25589;51.552;13.424;2023-04-15T07:46:56;10.90;99.90
39919;DHT22;25589;51.552;13.424;2023-04-15T07:49:22;11.50;99.90
39919;DHT22;25589;51.552;13.424;2023-04-15T07:51:48;11.80;99.90
39919;DHT22;25589;51.552;13.424;2023-04-15T07:54:14;11.70;99.90
39919;DHT22;25589;51.552;13.424;2023-04-15T07:56:40;11.70;99.90
39919;DHT22;25589;51.552;13.424;2023-04-15T07:59:06;11.60;99.90
39919;DHT22;25589;51.552;13.424;2023-04-15T08:01:31;12.30;99.90
39919;DHT22;25589;51.552;13.424;2023-04-15T08:03:58;11.30;99.90
39919;DHT22;25589;51.552;13.424;2023-04-15T08:06:23;11.80;99.90
39919;DHT22;25589;51.552;13.424;2023-04-15T08:08:49;11.30;99.90
39919;DHT22;25589;51.552;13.424;2023-04-15T08:11:15;11.60;99.90
39919;DHT22;25589;51.552;13.424;2023-04-15T08:13:41;11.40;99.90
39919;DHT22;25589;51.552;13.424;2023-04-15T08:16:17;11.90;99.90
39919;DHT22;25589;51.552;13.424;2023-04-15T08:18:44;11.70;99.90
39919;DHT22;25589;51.552;13.424;2023-04-15T08:21:10;11.80;99.90
39919;DHT22;25589;51.552;13.424;2023-04-15T08:23:36;12.20;99.90
39919;DHT22;25589;51.552;13.424;2023-04-15T08:26:02;11.70;99.90
39919;DHT22;25589;51.552;13.424;2023-04-15T08:28:27;11.80;99.90
39919;DHT22;25589;51.552;13.424;2023-04-15T08:30:53;11.60;99.90
39919;DHT22;25589;51.552;13.424;2023-04-15T08:33:18;11.00;99.90
39919;DHT22;25589;51.552;13.424;2023-04-15T08:35:44;12.30;99.90
39919;DHT22;25589;51.552;13.424;2023-04-15T08:38:09;11.90;99.90
39919;DHT22;25589;51.552;13.424;2023-04-15T08:40:41;12.90;99.90
39919;DHT22;25589;51.552;13.424;2023-04-15T08:43:09;12.00;99.90
39919;DHT22;25589;51.552;13.424;2023-04-15T08:45:37;12.00;99.90
39919;DHT22;25589;51.552;13.424;2023-04-15T08:48:04;11.90;99.90
39919;DHT22;25589;51.552;13.424;2023-04-15T08:50:31;11.90;99.90
39919;DHT22;25589;51.552;13.424;2023-04-15T08:52:58;11.90;99.90
39919;DHT22;25589;51.552;13.424;2023-04-15T08:55:29;12.20;99.90
39919;DHT22;25589;51.552;13.424;2023-04-15T08:57:55;12.30;99.90
39919;DHT22;25589;51.552;13.424;2023-04-15T09:00:21;12.10;99.90
39919;DHT22;25589;51.552;13.424;2023-04-15T09:02:47;12.10;99.90
39919;DHT22;25589;51.552;13.424;2023-04-15T09:05:13;12.10;99.90
39919;DHT22;25589;51.552;13.424;2023-04-15T09:07:38;12.00;99.90
39919;DHT22;25589;51.552;13.424;2023-04-15T09:10:04;12.70;99.90
39919;DHT22;25589;51.552;13.424;2023-04-15T09:12:34;12.00;99.90
39919;DHT22;25589;51.552;13.424;2023-04-15T09:15:00;12.00;99.90
39919;DHT22;25589;51.552;13.424;2023-04-15T09:17:26;11.70;99.90
39919;DHT22;25589;51.552;13.424;2023-04-15T09:20:09;12.20;99.90
39919;DHT22;25589;51.552;13.424;2023-04-15T09:22:35;12.20;99.90
39919;DHT22;25589;51.552;13.424;2023-04-15T09:25:02;12.20;99.90
39919;DHT22;25589;51.552;13.424;2023-04-15T09:27:28;12.90;99.90
39919;DHT22;25589;51.552;13.424;2023-04-15T09:29:54;11.70;99.90
39919;DHT22;25589;51.552;13.424;2023-04-15T09:32:19;12.30;99.90
39919;DHT22;25589;51.552;13.424;2023-04-15T09:34:49;12.50;99.90
39919;DHT22;25589;51.552;13.424;2023-04-15T09:37:15;12.20;99.90
39919;DHT22;25589;51.552;13.424;2023-04-15T09:39:51;12.50;99.90
39919;DHT22;25589;51.552;13.424;2023-04-15T09:42:17;12.40;99.90
39919;DHT22;25589;51.552;13.424;2023-04-15T09:44:49;12.30;99.90
39919;DHT22;25589;51.552;13.424;2023-04-15T09:47:29;12.30;99.90
39919;DHT22;25589;51.552;13.424;2023-04-15T09:49:59;12.40;99.90
39919;DHT22;25589;51.552;13.424;2023-04-15T09:52:24;12.30;99.90
39919;DHT22;25589;51.552;13.424;2023-04-15T09:54:53;12.20;99.90
39919;DHT22;25589;51.552;13.424;2023-04-15T09:57:21;12.20;99.90
39919;DHT22;25589;51.552;13.424;2023-04-15T09:59:47;12.80;99.90
39919;DHT22;25589;51.552;13.424;2023-04-15T10:02:12;12.00;99.90
39919;DHT22;25589;51.552;13.424;2023-04-15T10:04:39;12.20;99.90
39919;DHT22;25589;51.552;13.424;2023-04-15T10:07:07;12.30;99.90
39919;DHT22;25589;51.552;13.424;2023-04-15T10:09:35;12.30;99.90
39919;DHT22;25589;51.552;13.424;2023-04-15T10:12:02;12.50;99.90
39919;DHT22;25589;51.552;13.424;2023-04-15T10:14:32;11.60;99.90
39919;DHT22;25589;51.552;13.424;2023-04-15T10:17:00;11.70;99.90
39919;DHT22;25589;51.552;13.424;2023-04-15T10:19:27;12.30;99.90
39919;DHT22;25589;51.552;13.424;2023-04-15T10:24:23;12.20;99.90
39919;DHT22;25589;51.552;13.424;2023-04-15T10:26:50;12.20;99.90
39919;DHT22;25589;51.552;13.424;2023-04-15T10:29:16;12.20;99.90
39919;DHT22;25589;51.552;13.424;2023-04-15T10:31:42;12.10;99.90
39919;DHT22;25589;51.552;13.424;2023-04-15T10:34:09;12.20;99.90
39919;DHT22;25589;51.552;13.424;2023-04-15T10:36:35;12.20;99.90
39919;DHT22;25589;51.552;13.424;2023-04-15T10:39:01;12.30;99.90
39919;DHT22;25589;51.552;13.424;2023-04-15T10:41:28;12.20;99.90
39919;DHT22;25589;51.552;13.424;2023-04-15T10:46:33;12.30;99.90
39919;DHT22;25589;51.552;13.424;2023-04-15T10:49:16;12.20;99.90
39919;DHT22;25589;51.552;13.424;2023-04-15T10:51:52;12.40;99.90
39919;DHT22;25589;51.552;13.424;2023-04-15T10:59:32;12.20;99.90
39919;DHT22;25589;51.552;13.424;2023-04-15T11:02:02;12.30;99.90
39919;DHT22;25589;51.552;13.424;2023-04-15T11:04:54;12.20;99.90
39919;DHT22;25589;51.552;13.424;2023-04-15T11:12:43;12.50;99.90
39919;DHT22;25589;51.552;13.424;2023-04-15T11:15:29;12.10;99.90
39919;DHT22;25589;51.552;13.424;2023-04-15T11:18:15;12.40;99.90
39919;DHT22;25589;51.552;13.424;2023-04-15T11:20:42;12.40;99.90
39919;DHT22;25589;51.552;13.424;2023-04-15T11:25:38;12.50;99.90
39919;DHT22;25589;51.552;13.424;2023-04-15T11:30:34;12.50;99.90
39919;DHT22;25589;51.552;13.424;2023-04-15T11:33:03;12.50;99.90
39919;DHT22;25589;51.552;13.424;2023-04-15T11:35:29;12.50;99.90
39919;DHT22;25589;51.552;13.424;2023-04-15T11:37:55;12.70;99.90
39919;DHT22;25589;51.552;13.424;2023-04-15T11:40:25;12.70;99.90
39919;DHT22;25589;51.552;13.424;2023-04-15T11:43:10;12.70;99.90
39919;DHT22;25589;51.552;13.424;2023-04-15T11:45:44;12.70;99.90
39919;DHT22;25589;51.552;13.424;2023-04-15T11:48:12;12.50;99.90
39919;DHT22;25589;51.552;13.424;2023-04-15T11:50:39;12.80;99.90
39919;DHT22;25589;51.552;13.424;2023-04-15T11:53:06;12.70;99.90
39919;DHT22;25589;51.552;13.424;2023-04-15T11:55:46;12.90;99.90
39919;DHT22;25589;51.552;13.424;2023-04-15T11:58:17;12.80;99.90
39919;DHT22;25589;51.552;13.424;2023-04-15T12:11:42;12.80;99.90
39919;DHT22;25589;51.552;13.424;2023-04-15T12:14:15;12.90;99.90
39919;DHT22;25589;51.552;13.424;2023-04-15T12:16:46;13.10;99.90
39919;DHT22;25589;51.552;13.424;2023-04-15T12:21:44;13.40;99.90
39919;DHT22;25589;51.552;13.424;2023-04-15T12:24:10;13.10;99.90
39919;DHT22;25589;51.552;13.424;2023-04-15T12:26:46;13.20;99.90
39919;DHT22;25589;51.552;13.424;2023-04-15T12:29:13;13.10;99.90
39919;DHT22;25589;51.552;13.424;2023-04-15T12:31:54;14.10;99.90
39919;DHT22;25589;51.552;13.424;2023-04-15T12:34:31;13.60;99.90
39919;DHT22;25589;51.552;13.424;2023-04-15T12:36:59;13.90;99.90
39919;DHT22;25589;51.552;13.424;2023-04-15T12:39:27;14.00;99.90
39919;DHT22;25589;51.552;13.424;2023-04-15T12:41:53;12.70;99.90
39919;DHT22;25589;51.552;13.424;2023-04-15T12:44:20;14.30;99.90
39919;DHT22;25589;51.552;13.424;2023-04-15T12:46:46;14.30;99.90
39919;DHT22;25589;51.552;13.424;2023-04-15T12:49:12;14.70;99.90
39919;DHT22;25589;51.552;13.424;2023-04-15T12:51:39;14.50;99.90
39919;DHT22;25589;51.552;13.424;2023-04-15T12:54:05;14.60;99.90
39919;DHT22;25589;51.552;13.424;2023-04-15T12:56:30;14.60;99.90
39919;DHT22;25589;51.552;13.424;2023-04-15T12:58:56;14.20;99.90
39919;DHT22;25589;51.552;13.424;2023-04-15T13:01:21;14.90;99.90
39919;DHT22;25589;51.552;13.424;2023-04-15T13:03:47;14.90;99.90
39919;DHT22;25589;51.552;13.424;2023-04-15T13:06:14;14.90;99.90
39919;DHT22;25589;51.552;13.424;2023-04-15T13:08:40;14.40;99.90
39919;DHT22;25589;51.552;13.424;2023-04-15T13:11:06;14.90;99.90
39919;DHT22;25589;51.552;13.424;2023-04-15T13:13:32;14.80;99.90
39919;DHT22;25589;51.552;13.424;2023-04-15T13:15:58;14.80;99.90
39919;DHT22;25589;51.552;13.424;2023-04-15T13:18:23;14.50;99.90
39919;DHT22;25589;51.552;13.424;2023-04-15T13:20:49;14.70;99.90
39919;DHT22;25589;51.552;13.424;2023-04-15T13:23:15;14.70;99.90
39919;DHT22;25589;51.552;13.424;2023-04-15T13:25:41;14.70;99.90
39919;DHT22;25589;51.552;13.424;2023-04-15T13:28:07;14.60;99.90
39919;DHT22;25589;51.552;13.424;2023-04-15T13:30:32;14.60;99.90
39919;DHT22;25589;51.552;13.424;2023-04-15T13:32:58;14.80;99.90
39919;DHT22;25589;51.552;13.424;2023-04-15T13:35:23;14.50;99.90
39919;DHT22;25589;51.552;13.424;2023-04-15T13:37:50;14.50;99.90
39919;DHT22;25589;51.552;13.424;2023-04-15T13:40:15;14.50;99.90
39919;DHT22;25589;51.552;13.424;2023-04-15T13:42:42;14.50;99.90
39919;DHT22;25589;51.552;13.424;2023-04-15T13:45:08;14.80;99.90
39919;DHT22;25589;51.552;13.424;2023-04-15T13:47:33;14.40;99.90
39919;DHT22;25589;51.552;13.424;2023-04-15T13:49:59;14.40;99.90
39919;DHT22;25589;51.552;13.424;2023-04-15T13:52:25;14.40;99.90
39919;DHT22;25589;51.552;13.424;2023-04-15T13:54:50;14.00;99.90
39919;DHT22;25589;51.552;13.424;2023-04-15T13:57:16;14.40;99.90
39919;DHT22;25589;51.552;13.424;2023-04-15T13:59:41;14.40;99.90
39919;DHT22;25589;51.552;13.424;2023-04-15T14:02:08;14.50;99.90
39919;DHT22;25589;51.552;13.424;2023-04-15T14:04:34;14.40;99.90
39919;DHT22;25589;51.552;13.424;2023-04-15T14:06:59;14.60;99.90
39919;DHT22;25589;51.552;13.424;2023-04-15T14:09:25;14.80;99.90
39919;DHT22;25589;51.552;13.424;2023-04-15T14:11:51;14.60;99.90
39919;DHT22;25589;51.552;13.424;2023-04-15T14:14:17;14.40;99.90
39919;DHT22;25589;51.552;13.424;2023-04-15T14:16:42;14.60;99.90
39919;DHT22;25589;51.552;13.424;2023-04-15T14:19:08;14.70;99.90
39919;DHT22;25589;51.552;13.424;2023-04-15T14:21:33;14.80;99.90
39919;DHT22;25589;51.552;13.424;2023-04-15T14:23:59;14.80;99.90
39919;DHT22;25589;51.552;13.424;2023-04-15T14:26:24;14.70;99.90
39919;DHT22;25589;51.552;13.424;2023-04-15T14:28:50;14.70;99.90
39919;DHT22;25589;51.552;13.424;2023-04-15T14:31:16;14.70;99.90
39919;DHT22;25589;51.552;13.424;2023-04-15T14:33:41;14.70;99.90
39919;DHT22;25589;51.552;13.424;2023-04-15T14:36:08;14.80;99.90
39919;DHT22;25589;51.552;13.424;2023-04-15T14:38:34;14.80;99.90
39919;DHT22;25589;51.552;13.424;2023-04-15T14:41:05;14.70;99.90
39919;DHT22;25589;51.552;13.424;2023-04-15T14:43:31;14.60;99.90
39919;DHT22;25589;51.552;13.424;2023-04-15T14:45:56;14.80;99.90
39919;DHT22;25589;51.552;13.424;2023-04-15T14:48:22;14.80;99.90
39919;DHT22;25589;51.552;13.424;2023-04-15T14:50:47;14.90;99.90
39919;DHT22;25589;51.552;13.424;2023-04-15T14:53:13;15.00;99.90
39919;DHT22;25589;51.552;13.424;2023-04-15T14:55:39;14.50;99.90
39919;DHT22;25589;51.552;13.424;2023-04-15T14:58:05;14.80;99.90
39919;DHT22;25589;51.552;13.424;2023-04-15T15:00:32;15.20;99.90
39919;DHT22;25589;51.552;13.424;2023-04-15T15:02:58;15.10;99.90
39919;DHT22;25589;51.552;13.424;2023-04-15T15:05:24;15.20;99.90
39919;DHT22;25589;51.552;13.424;2023-04-15T15:07:50;15.20;99.90
39919;DHT22;25589;51.552;13.424;2023-04-15T15:10:15;15.20;99.90
39919;DHT22;25589;51.552;13.424;2023-04-15T15:12:41;15.30;99.90
39919;DHT22;25589;51.552;13.424;2023-04-15T15:15:07;15.30;99.90
39919;DHT22;25589;51.552;13.424;2023-04-15T15:17:33;15.30;99.90
39919;DHT22;25589;51.552;13.424;2023-04-15T15:19:59;15.30;99.90
39919;DHT22;25589;51.552;13.424;2023-04-15T15:22:24;15.30;99.90
39919;DHT22;25589;51.552;13.424;2023-04-15T15:24:50;15.30;99.90
39919;DHT22;25589;51.552;13.424;2023-04-15T15:27:16;15.20;99.90
39919;DHT22;25589;51.552;13.424;2023-04-15T15:29:41;15.20;99.90
39919;DHT22;25589;51.552;13.424;2023-04-15T15:34:33;15.80;99.90
39919;DHT22;25589;51.552;13.424;2023-04-15T15:36:59;15.30;99.90
39919;DHT22;25589;51.552;13.424;2023-04-15T15:39:25;15.30;99.90
39919;DHT22;25589;51.552;13.424;2023-04-15T15:41:51;15.30;99.90
39919;DHT22;25589;51.552;13.424;2023-04-15T15:44:17;15.40;99.90
39919;DHT22;25589;51.552;13.424;2023-04-15T15:46:42;15.30;99.90
39919;DHT22;25589;51.552;13.424;2023-04-15T15:49:10;15.20;99.90
39919;DHT22;25589;51.552;13.424;2023-04-15T15:51:35;15.20;99.90
39919;DHT22;25589;51.552;13.424;2023-04-15T15:54:01;15.20;99.90
39919;DHT22;25589;51.552;13.424;2023-04-15T15:56:26;15.20;99.90
39919;DHT22;25589;51.552;13.424;2023-04-15T15:58:53;15.10;99.90
39919;DHT22;25589;51.552;13.424;2023-04-15T16:01:19;15.10;99.90
39919;DHT22;25589;51.552;13.424;2023-04-15T16:03:45;15.10;99.90
39919;DHT22;25589;51.552;13.424;2023-04-15T16:06:12;15.00;99.90
39919;DHT22;25589;51.552;13.424;2023-04-15T16:08:38;15.20;99.90